Time;durP1;ratioP1;P1;durP2;ratioP2;P2;SDS_P1;SDS_P2;PMS_P1;PMS_P2;Temp;Humidity;BMP_temperature;BMP_pressure;BME280_temperature;BME280_humidity;BME280_pressure;Samples;Min_cycle;Max_cycle;Signal;HPM_P1;HPM_P2
2022/07/05 00:01:08;;;;;;;4.90;2.40;;;17.90;99.90;;;;;;5076109;28;20204;-85
2022/07/05 00:03:36;;;;;;;4.63;2.53;;;17.80;99.90;;;;;;5076077;28;20193;-85
2022/07/05 00:06:06;;;;;;;3.20;2.50;;;17.80;99.90;;;;;;5075273;28;20566;-85
2022/07/05 00:08:33;;;;;;;3.38;2.60;;;17.80;99.90;;;;;;5074259;28;20194;-86
2022/07/05 00:11:06;;;;;;;7.20;2.58;;;17.80;99.90;;;;;;5077345;28;20194;-86
2022/07/05 00:13:33;;;;;;;3.35;2.38;;;17.80;99.90;;;;;;5073485;28;20196;-86
2022/07/05 00:16:00;;;;;;;3.42;2.50;;;17.80;99.90;;;;;;5064185;28;20212;-86
2022/07/05 00:18:29;;;;;;;2.53;2.10;;;17.90;99.90;;;;;;5076184;28;20209;-86
2022/07/05 00:20:56;;;;;;;2.88;2.22;;;17.90;99.90;;;;;;5068676;28;20201;-86
2022/07/05 00:23:23;;;;;;;3.15;2.15;;;18.00;99.90;;;;;;5069550;28;20201;-86
2022/07/05 00:26:06;;;;;;;1.88;1.77;;;18.00;99.90;;;;;;5070861;28;20205;-86
2022/07/05 00:28:36;;;;;;;2.25;2.05;;;18.00;99.90;;;;;;5073721;28;20193;-86
2022/07/05 00:31:06;;;;;;;2.95;2.30;;;17.90;99.90;;;;;;5075648;28;20202;-86
2022/07/05 00:33:38;;;;;;;2.70;2.30;;;17.90;99.90;;;;;;5070722;28;20196;-85
2022/07/05 00:36:06;;;;;;;3.22;1.92;;;17.80;99.90;;;;;;5066477;28;20201;-86
2022/07/05 00:38:33;;;;;;;2.65;1.95;;;17.90;99.90;;;;;;5080760;28;20193;-86
2022/07/05 00:41:18;;;;;;;2.10;1.75;;;17.90;99.90;;;;;;5073993;28;20195;-85
2022/07/05 00:43:53;;;;;;;2.15;1.83;;;17.90;99.90;;;;;;5079034;28;20199;-86
2022/07/05 00:46:24;;;;;;;2.00;1.80;;;17.90;99.90;;;;;;5068441;28;20201;-85
2022/07/05 00:49:02;;;;;;;2.78;1.90;;;17.80;99.90;;;;;;5070679;28;20208;-86
2022/07/05 00:51:42;;;;;;;6.28;2.22;;;17.70;99.90;;;;;;5071655;28;20224;-85
2022/07/05 00:54:12;;;;;;;2.83;2.15;;;17.60;99.90;;;;;;5081065;28;20600;-85
2022/07/05 00:56:44;;;;;;;2.20;1.90;;;17.60;99.90;;;;;;5074287;28;20194;-85
2022/07/05 00:59:11;;;;;;;4.20;2.20;;;17.60;99.90;;;;;;5080631;28;20284;-85
2022/07/05 01:01:37;;;;;;;5.20;2.10;;;17.60;99.90;;;;;;5083675;28;20208;-86
2022/07/05 01:04:06;;;;;;;3.00;2.30;;;17.60;99.90;;;;;;5080289;28;20198;-85
2022/07/05 01:06:36;;;;;;;3.63;2.20;;;17.50;99.90;;;;;;5079891;28;20213;-85
2022/07/05 01:09:03;;;;;;;5.13;2.50;;;17.50;99.90;;;;;;5082000;28;20204;-85
2022/07/05 01:11:43;;;;;;;4.43;2.75;;;17.60;99.90;;;;;;5071744;28;20233;-85
2022/07/05 01:14:21;;;;;;;5.35;3.40;;;17.50;99.90;;;;;;5068606;28;20393;-85
2022/07/05 01:17:00;;;;;;;4.22;3.20;;;17.50;99.90;;;;;;5076292;28;20209;-85
2022/07/05 01:19:32;;;;;;;6.03;3.92;;;17.50;99.90;;;;;;5077436;28;20185;-85
2022/07/05 01:22:42;;;;;;;7.15;5.78;;;17.50;99.90;;;;;;5079236;28;20201;-85
2022/07/05 01:25:48;;;;;;;9.02;7.00;;;17.40;99.90;;;;;;5080078;28;20215;-85
2022/07/05 01:29:00;;;;;;;11.13;10.13;;;17.40;99.90;;;;;;5082635;28;20523;-85
2022/07/05 01:32:01;;;;;;;14.90;13.40;;;17.50;99.90;;;;;;5082939;28;20643;-85
2022/07/05 01:34:28;;;;;;;14.45;12.50;;;17.50;99.90;;;;;;5078521;28;20212;-85
2022/07/05 01:37:00;;;;;;;10.63;8.13;;;17.50;99.90;;;;;;5081229;28;20204;-85
2022/07/05 01:39:27;;;;;;;9.90;6.53;;;17.50;99.90;;;;;;5079539;28;20209;-86
2022/07/05 01:42:24;;;;;;;5.70;4.35;;;17.40;99.90;;;;;;5082660;28;20197;-85
2022/07/05 01:44:51;;;;;;;3.22;2.90;;;17.40;99.90;;;;;;5081609;28;20197;-85
2022/07/05 01:47:19;;;;;;;3.20;2.90;;;17.50;99.90;;;;;;5063542;28;20193;-85
2022/07/05 01:49:51;;;;;;;3.03;2.72;;;17.50;99.90;;;;;;5079386;28;20193;-85
2022/07/05 01:52:32;;;;;;;3.45;2.88;;;17.60;99.90;;;;;;5082215;28;20334;-86
2022/07/05 01:55:01;;;;;;;3.08;2.78;;;17.60;99.90;;;;;;5078714;28;20189;-85
2022/07/05 01:57:42;;;;;;;3.05;2.45;;;17.60;99.90;;;;;;5073233;28;20194;-86
2022/07/05 02:00:13;;;;;;;3.63;2.83;;;17.60;99.90;;;;;;5081708;28;20201;-86
2022/07/05 02:03:05;;;;;;;4.93;2.85;;;17.60;99.90;;;;;;5077103;28;20644;-86
2022/07/05 02:05:54;;;;;;;3.13;2.67;;;17.60;99.90;;;;;;5080079;28;20526;-85
2022/07/05 02:08:30;;;;;;;2.97;2.47;;;17.60;99.90;;;;;;5078516;28;20198;-85
2022/07/05 02:10:57;;;;;;;6.60;2.67;;;17.60;99.90;;;;;;5064091;28;20197;-85
2022/07/05 02:13:36;;;;;;;3.65;2.80;;;17.50;99.90;;;;;;5075888;28;20213;-86
2022/07/05 02:16:04;;;;;;;2.83;2.50;;;17.50;99.90;;;;;;5069824;28;20207;-85
2022/07/05 02:18:38;;;;;;;4.50;2.47;;;17.50;99.90;;;;;;5069886;28;20208;-86
2022/07/05 02:21:05;;;;;;;3.13;2.53;;;17.50;99.90;;;;;;5075855;28;20575;-86
2022/07/05 02:23:36;;;;;;;4.40;2.60;;;17.50;99.90;;;;;;5075319;28;20214;-86
2022/07/05 02:26:06;;;;;;;2.83;2.50;;;17.60;99.90;;;;;;5076110;28;20212;-85
2022/07/05 02:28:33;;;;;;;3.33;2.80;;;17.50;99.90;;;;;;5070970;28;20554;-86
2022/07/05 02:34:24;;;;;;;2.65;2.45;;;17.50;99.90;;;;;;5077141;28;20208;-86
2022/07/05 02:36:51;;;;;;;5.25;2.65;;;17.40;99.90;;;;;;5072166;28;20206;-86
2022/07/05 02:39:17;;;;;;;3.33;2.47;;;17.40;99.90;;;;;;5075694;28;20240;-86
2022/07/05 02:41:54;;;;;;;4.43;2.70;;;17.40;99.90;;;;;;5075649;28;20217;-86
2022/07/05 02:44:24;;;;;;;2.42;2.20;;;17.50;99.90;;;;;;5078621;28;20193;-85
2022/07/05 02:47:12;;;;;;;3.78;2.20;;;17.50;99.90;;;;;;5072022;28;20193;-85
2022/07/05 02:49:40;;;;;;;3.05;2.47;;;17.40;99.90;;;;;;5082451;28;20215;-85
2022/07/05 02:52:12;;;;;;;3.28;2.35;;;17.50;99.90;;;;;;5076925;28;20236;-85
2022/07/05 02:54:42;;;;;;;5.05;3.33;;;17.50;99.90;;;;;;5080160;28;20218;-86
2022/07/05 02:57:09;;;;;;;2.95;2.65;;;17.40;99.90;;;;;;5074281;28;20282;-86
2022/07/05 02:59:36;;;;;;;3.80;2.78;;;17.30;99.90;;;;;;5068848;28;20193;-85
2022/07/05 03:02:12;;;;;;;3.58;2.80;;;17.20;99.90;;;;;;5070509;28;20202;-86
2022/07/05 03:04:44;;;;;;;4.80;2.70;;;17.10;99.90;;;;;;5072546;28;20189;-85
2022/07/05 03:07:11;;;;;;;3.53;2.70;;;17.10;99.90;;;;;;5079555;28;20189;-85
2022/07/05 03:09:42;;;;;;;2.53;2.33;;;17.10;99.90;;;;;;5081925;28;20200;-85
2022/07/05 03:12:14;;;;;;;2.75;2.55;;;17.10;99.90;;;;;;5081950;28;20214;-86
2022/07/05 03:15:00;;;;;;;4.80;2.95;;;17.00;99.90;;;;;;5075374;28;20201;-85
2022/07/05 03:17:42;;;;;;;2.95;2.60;;;17.00;99.90;;;;;;5081427;28;20193;-85
2022/07/05 03:20:12;;;;;;;2.78;2.40;;;17.10;99.90;;;;;;5081221;28;20268;-85
2022/07/05 03:23:00;;;;;;;2.55;2.35;;;17.10;99.90;;;;;;5078838;28;20197;-85
2022/07/05 03:25:36;;;;;;;4.45;2.70;;;17.20;99.90;;;;;;5072604;28;20197;-85
2022/07/05 03:28:18;;;;;;;2.33;2.13;;;17.20;99.90;;;;;;5076560;28;20659;-85
2022/07/05 03:30:54;;;;;;;4.03;2.67;;;17.20;99.90;;;;;;5076795;28;20208;-85
2022/07/05 03:33:24;;;;;;;3.45;2.40;;;17.20;99.90;;;;;;5065619;28;20216;-89
2022/07/05 03:35:56;;;;;;;2.50;2.30;;;17.20;99.90;;;;;;5068922;28;20209;-88
2022/07/05 03:38:24;;;;;;;2.90;2.60;;;17.20;99.90;;;;;;5067642;28;20205;-88
2022/07/05 03:41:00;;;;;;;5.07;2.38;;;17.20;99.90;;;;;;5070154;28;20200;-89
2022/07/05 03:43:48;;;;;;;4.82;2.70;;;17.20;99.90;;;;;;5072811;28;20215;-88
2022/07/05 03:46:24;;;;;;;3.28;2.10;;;17.20;99.90;;;;;;5064521;28;20200;-88
2022/07/05 03:48:55;;;;;;;3.10;2.40;;;17.20;99.90;;;;;;5070572;28;20196;-88
2022/07/05 03:51:43;;;;;;;3.63;2.35;;;17.10;99.90;;;;;;5062905;28;20637;-89
2022/07/05 03:54:13;;;;;;;4.55;2.70;;;17.10;99.90;;;;;;5068017;28;20206;-88
2022/07/05 03:56:43;;;;;;;2.50;2.30;;;17.10;99.90;;;;;;5068894;28;20588;-89
2022/07/05 03:59:36;;;;;;;4.05;2.72;;;17.00;99.90;;;;;;5063169;28;20657;-89
2022/07/05 04:02:03;;;;;;;4.40;2.83;;;17.00;99.90;;;;;;5070962;28;20648;-88
2022/07/05 04:04:30;;;;;;;3.28;2.55;;;17.10;99.90;;;;;;5070686;28;20643;-88
2022/07/05 04:07:02;;;;;;;4.65;3.00;;;17.10;99.90;;;;;;5068970;28;20199;-88
2022/07/05 04:09:30;;;;;;;3.22;2.70;;;17.10;99.90;;;;;;5065265;28;20694;-88
2022/07/05 04:12:07;;;;;;;3.15;2.83;;;17.40;99.90;;;;;;5071286;28;20194;-88
2022/07/05 04:14:34;;;;;;;2.78;2.47;;;17.70;99.90;;;;;;5068334;28;20193;-88
2022/07/05 04:17:06;;;;;;;2.63;2.42;;;17.70;99.90;;;;;;5073058;28;20208;-87
2022/07/05 04:19:37;;;;;;;2.88;2.60;;;17.80;99.90;;;;;;5077178;28;20185;-88
2022/07/05 04:22:06;;;;;;;4.15;2.38;;;17.80;99.90;;;;;;5075002;28;20197;-88
2022/07/05 04:27:29;;;;;;;233.43;208.90;;;18.40;99.90;;;;;;5010811;28;20200;-88
2022/07/05 04:30:22;;;;;;;24.52;20.67;;;18.40;99.90;;;;;;5011523;28;20202;-88
2022/07/05 04:33:07;;;;;;;10.32;8.93;;;18.50;99.90;;;;;;5009618;28;20227;-89
2022/07/05 04:36:06;;;;;;;6.47;5.40;;;18.50;99.90;;;;;;4992695;28;20203;-88
2022/07/05 04:38:35;;;;;;;6.55;3.78;;;18.50;99.60;;;;;;4998990;28;20203;-89
2022/07/05 04:41:06;;;;;;;5.40;4.55;;;18.50;99.80;;;;;;5001263;28;20574;-89
2022/07/05 04:43:34;;;;;;;4.45;2.90;;;18.80;99.30;;;;;;5009973;28;20275;-86
2022/07/05 04:46:24;;;;;;;8.20;3.72;;;19.00;98.00;;;;;;5010283;28;20195;-86
2022/07/05 04:49:00;;;;;;;14.23;4.22;;;18.90;98.50;;;;;;5005006;28;20202;-86
2022/07/05 04:51:37;;;;;;;5.75;2.85;;;19.00;98.40;;;;;;4999574;28;20203;-89
2022/07/05 04:54:14;;;;;;;35.20;9.05;;;18.90;98.70;;;;;;5007287;28;20222;-89
2022/07/05 04:56:43;;;;;;;5.78;2.80;;;19.00;99.00;;;;;;5007151;28;20569;-89
2022/07/05 04:59:12;;;;;;;7.60;3.88;;;19.20;97.90;;;;;;5005886;28;20682;-86
2022/07/05 05:01:42;;;;;;;7.07;3.35;;;19.30;97.90;;;;;;5003747;28;20198;-84
2022/07/05 05:04:09;;;;;;;3.97;2.50;;;19.40;97.90;;;;;;5025470;28;20719;-86
2022/07/05 05:06:36;;;;;;;3.45;2.50;;;19.50;97.40;;;;;;5073357;28;20185;-87
2022/07/05 05:09:03;;;;;;;3.75;2.38;;;19.40;97.90;;;;;;5073240;28;20766;-87
2022/07/05 05:11:32;;;;;;;10.52;2.30;;;19.40;97.70;;;;;;5074707;28;20208;-85
2022/07/05 05:14:18;;;;;;;3.15;2.30;;;19.60;97.30;;;;;;5072728;28;20218;-86
2022/07/05 05:16:54;;;;;;;3.47;2.00;;;19.70;96.80;;;;;;5076700;28;20232;-86
2022/07/05 05:19:24;;;;;;;3.53;2.17;;;19.70;96.90;;;;;;5070183;28;20276;-86
2022/07/05 05:21:51;;;;;;;4.18;2.10;;;19.50;97.80;;;;;;5072212;28;20550;-87
2022/07/05 05:24:18;;;;;;;5.30;2.10;;;19.40;97.90;;;;;;5072512;28;20293;-87
2022/07/05 05:26:47;;;;;;;4.75;2.03;;;19.50;98.20;;;;;;5069248;28;20206;-87
2022/07/05 05:29:14;;;;;;;2.00;1.80;;;19.50;97.60;;;;;;5073747;28;20193;-88
2022/07/05 05:31:42;;;;;;;2.70;1.90;;;19.70;96.60;;;;;;5074616;28;20552;-87
2022/07/05 05:34:30;;;;;;;4.95;1.83;;;19.80;96.60;;;;;;5069176;28;20233;-86
2022/07/05 05:37:12;;;;;;;5.05;2.00;;;19.70;97.00;;;;;;5068869;28;20198;-87
2022/07/05 05:39:49;;;;;;;3.08;2.30;;;19.80;96.80;;;;;;5078441;28;20206;-87
2022/07/05 05:42:26;;;;;;;3.92;1.73;;;19.90;96.40;;;;;;5068498;28;20196;-87
2022/07/05 05:45:00;;;;;;;2.53;2.00;;;20.10;96.30;;;;;;5076787;28;20212;-87
2022/07/05 05:48:12;;;;;;;2.08;1.90;;;20.40;94.90;;;;;;5077764;28;20209;-87
2022/07/05 05:50:50;;;;;;;1.90;1.80;;;20.50;94.70;;;;;;5074340;28;20194;-88
2022/07/05 05:53:17;;;;;;;7.38;5.35;;;20.90;94.20;;;;;;5073716;28;20217;-88
2022/07/05 05:55:44;;;;;;;11.00;7.35;;;21.50;93.00;;;;;;5063339;28;20212;-87
2022/07/05 05:58:23;;;;;;;24.25;14.95;;;21.80;90.70;;;;;;5076096;28;20216;-88
2022/07/05 06:01:01;;;;;;;13.40;9.20;;;21.70;91.80;;;;;;5063287;28;20197;-88
2022/07/05 06:03:42;;;;;;;7.70;3.30;;;21.50;92.10;;;;;;5058732;28;20228;-91
2022/07/05 06:06:10;;;;;;;4.72;3.28;;;21.40;92.40;;;;;;5064151;28;20229;-84
2022/07/05 06:08:42;;;;;;;5.03;3.00;;;21.30;93.00;;;;;;5067234;28;20190;-88
2022/07/05 06:11:13;;;;;;;3.95;3.05;;;21.20;93.00;;;;;;5065605;28;20198;-88
2022/07/05 06:13:44;;;;;;;3.97;3.20;;;20.90;94.30;;;;;;5063259;28;20209;-88
2022/07/05 06:16:25;;;;;;;3.53;2.80;;;20.70;94.80;;;;;;5064000;28;20217;-86
2022/07/05 06:18:52;;;;;;;3.50;3.17;;;20.70;95.40;;;;;;5075982;28;20204;-86
2022/07/05 06:21:19;;;;;;;4.35;3.33;;;20.60;95.50;;;;;;5074738;28;20200;-88
2022/07/05 06:23:46;;;;;;;3.63;3.28;;;20.40;96.00;;;;;;5067511;28;20198;-88
2022/07/05 06:26:19;;;;;;;4.63;3.40;;;20.40;96.10;;;;;;5069077;28;20194;-88
2022/07/05 06:28:56;;;;;;;4.15;3.50;;;20.50;95.90;;;;;;5068725;28;20212;-88
2022/07/05 06:31:24;;;;;;;5.70;3.42;;;20.50;95.80;;;;;;5071378;28;20201;-87
2022/07/05 06:33:55;;;;;;;3.88;3.50;;;20.50;95.90;;;;;;5068620;28;20216;-87
2022/07/05 06:36:31;;;;;;;4.80;3.40;;;20.50;96.40;;;;;;5064389;28;20221;-85
2022/07/05 06:38:58;;;;;;;5.32;3.50;;;20.60;96.20;;;;;;5068725;28;20205;-86
2022/07/05 06:42:00;;;;;;;6.07;3.53;;;20.70;95.70;;;;;;5065089;28;20276;-85
2022/07/05 06:44:49;;;;;;;3.45;2.92;;;20.70;95.90;;;;;;5060088;28;20194;-86
2022/07/05 06:47:17;;;;;;;5.70;3.15;;;20.80;95.60;;;;;;5060179;28;20201;-87
2022/07/05 06:49:48;;;;;;;5.63;3.50;;;20.80;95.80;;;;;;5066643;28;20197;-87
2022/07/05 06:52:24;;;;;;;5.07;3.30;;;20.90;96.00;;;;;;5061484;28;20592;-87
2022/07/05 06:54:55;;;;;;;6.00;3.90;;;20.80;96.40;;;;;;5062517;28;20248;-86
2022/07/05 06:58:12;;;;;;;4.93;3.20;;;20.80;95.60;;;;;;5068945;28;20213;-85
2022/07/05 07:00:41;;;;;;;5.47;3.30;;;21.10;95.00;;;;;;5062705;28;20212;-86
2022/07/05 07:03:25;;;;;;;4.45;3.08;;;21.30;93.50;;;;;;5077597;28;20201;-85
2022/07/05 07:06:00;;;;;;;4.15;3.22;;;21.40;93.40;;;;;;5066674;28;20196;-84
2022/07/05 07:11:13;;;;;;;5.95;3.08;;;21.90;92.20;;;;;;5072459;28;20201;-84
2022/07/05 07:13:40;;;;;;;5.18;3.25;;;22.30;90.40;;;;;;5071496;28;20217;-85
2022/07/05 07:16:08;;;;;;;2.75;2.55;;;22.50;89.20;;;;;;5062343;28;20579;-85
2022/07/05 07:18:35;;;;;;;4.05;3.00;;;22.70;88.00;;;;;;5063729;28;20198;-85
2022/07/05 07:21:07;;;;;;;5.95;3.20;;;22.80;84.80;;;;;;5077356;28;20232;-85
2022/07/05 07:23:48;;;;;;;4.90;2.92;;;22.60;86.40;;;;;;5063793;28;20193;-85
2022/07/05 07:29:19;;;;;;;6.18;2.90;;;22.60;85.80;;;;;;5071816;28;20604;-84
2022/07/05 07:32:20;;;;;;;4.25;2.80;;;22.40;90.10;;;;;;5066368;28;20222;-86
2022/07/05 07:34:54;;;;;;;3.72;2.80;;;22.30;88.80;;;;;;5068114;28;20906;-86
2022/07/05 07:37:25;;;;;;;5.10;3.28;;;22.40;90.00;;;;;;5071244;28;20204;-86
2022/07/05 07:40:18;;;;;;;5.00;2.70;;;22.60;86.00;;;;;;5071583;28;20558;-86
2022/07/05 07:42:45;;;;;;;4.55;2.70;;;22.70;85.30;;;;;;5054973;28;20718;-85
2022/07/05 07:45:19;;;;;;;5.03;2.58;;;23.10;83.00;;;;;;5073526;28;20225;-83
2022/07/05 07:47:47;;;;;;;5.88;2.90;;;23.30;78.50;;;;;;5071398;28;20204;-85
2022/07/05 07:50:36;;;;;;;6.75;2.30;;;23.10;77.70;;;;;;5070472;28;20668;-83
2022/07/05 07:53:07;;;;;;;5.93;2.92;;;23.00;72.30;;;;;;5071810;28;20208;-83
2022/07/05 07:55:42;;;;;;;3.67;2.75;;;22.90;75.10;;;;;;5063523;28;20194;-83
2022/07/05 07:58:19;;;;;;;3.28;2.90;;;23.00;76.20;;;;;;5069720;28;20198;-83
2022/07/05 08:00:49;;;;;;;6.07;3.10;;;23.10;76.60;;;;;;5056231;28;20201;-83
2022/07/05 08:03:38;;;;;;;4.43;2.75;;;23.30;77.50;;;;;;5067285;28;20204;-83
2022/07/05 08:06:10;;;;;;;4.40;2.58;;;23.50;73.60;;;;;;5069870;28;20191;-83
2022/07/05 08:08:37;;;;;;;3.08;2.78;;;24.10;68.00;;;;;;5069170;28;20247;-83
2022/07/05 08:11:04;;;;;;;5.55;2.60;;;24.60;66.50;;;;;;5073082;28;20197;-83
2022/07/05 08:13:37;;;;;;;3.63;2.35;;;24.80;61.40;;;;;;5077294;28;20209;-84
2022/07/05 08:16:13;;;;;;;3.90;2.22;;;24.90;45.70;;;;;;5062181;28;20202;-83
2022/07/05 08:21:43;;;;;;;10.40;2.47;;;24.40;43.40;;;;;;5055008;28;20866;-85
2022/07/05 08:24:30;;;;;;;11.13;2.65;;;24.40;45.10;;;;;;5072848;28;20200;-84
2022/07/05 08:27:00;;;;;;;5.65;2.28;;;25.50;40.30;;;;;;5057022;28;20198;-85
2022/07/05 08:30:00;;;;;;;4.97;2.35;;;27.60;29.50;;;;;;5061025;28;20208;-85
2022/07/05 08:32:27;;;;;;;5.88;2.00;;;29.60;17.50;;;;;;5068621;28;20219;-85
2022/07/05 08:34:55;;;;;;;2.78;2.20;;;30.70;15.60;;;;;;5070510;28;20231;-86
2022/07/05 08:37:22;;;;;;;3.15;1.92;;;30.80;14.00;;;;;;5069127;28;20215;-86
2022/07/05 08:40:01;;;;;;;4.22;2.17;;;30.00;15.90;;;;;;5070842;28;20197;-85
2022/07/05 08:42:37;;;;;;;2.88;1.98;;;29.30;16.30;;;;;;5072620;28;20207;-86
2022/07/05 08:45:26;;;;;;;3.83;2.15;;;28.50;18.40;;;;;;5055094;28;20196;-86
2022/07/05 08:48:01;;;;;;;4.45;2.22;;;28.50;18.30;;;;;;5066999;28;20231;-86
2022/07/05 08:50:31;;;;;;;3.40;2.20;;;28.90;17.40;;;;;;5063388;28;20203;-86
2022/07/05 08:52:59;;;;;;;3.38;2.20;;;30.60;15.70;;;;;;5067024;28;20192;-85
2022/07/05 08:55:43;;;;;;;2.97;2.33;;;32.20;13.40;;;;;;5058349;28;20219;-86
2022/07/05 08:58:42;;;;;;;2.40;2.20;;;33.60;9.30;;;;;;5075241;28;20189;-85
2022/07/05 09:01:14;;;;;;;3.40;2.30;;;33.80;8.40;;;;;;5071826;28;20227;-86
2022/07/05 09:03:44;;;;;;;2.97;2.60;;;34.00;8.30;;;;;;5078203;28;20200;-85
2022/07/05 09:06:50;;;;;;;2.42;2.20;;;34.40;7.30;;;;;;5069647;28;20197;-85
2022/07/05 09:09:19;;;;;;;3.47;2.40;;;33.80;8.90;;;;;;5067111;28;20197;-85
2022/07/05 09:11:55;;;;;;;2.75;2.42;;;33.50;10.00;;;;;;5078124;28;20561;-86
2022/07/05 09:14:26;;;;;;;2.95;2.40;;;32.80;9.70;;;;;;5059332;28;20219;-85
2022/07/05 09:17:01;;;;;;;2.95;2.10;;;32.20;9.00;;;;;;5059200;28;20668;-86
2022/07/05 09:19:29;;;;;;;2.60;2.10;;;30.70;10.30;;;;;;5057276;28;20647;-85
2022/07/05 09:22:08;;;;;;;3.63;2.08;;;30.00;10.70;;;;;;5060874;28;20645;-86
2022/07/05 09:24:44;;;;;;;4.60;2.10;;;30.70;10.40;;;;;;5062405;28;20639;-86
2022/07/05 09:27:19;;;;;;;3.65;2.30;;;30.80;9.80;;;;;;5076945;28;20200;-86
2022/07/05 09:30:07;;;;;;;3.13;2.20;;;29.60;12.60;;;;;;5062776;28;20247;-85
2022/07/05 09:32:34;;;;;;;4.70;2.20;;;29.90;12.60;;;;;;5064601;28;20209;-86
2022/07/05 09:35:20;;;;;;;4.40;2.47;;;31.20;11.70;;;;;;5062393;28;20213;-85
2022/07/05 09:37:50;;;;;;;2.30;2.10;;;32.60;9.90;;;;;;5061804;28;20201;-85
2022/07/05 09:40:19;;;;;;;3.05;2.35;;;32.50;10.10;;;;;;5081779;28;20232;-86
2022/07/05 09:43:16;;;;;;;4.95;2.20;;;31.10;9.90;;;;;;5076631;28;20205;-85
2022/07/05 09:45:52;;;;;;;4.40;2.30;;;29.50;13.40;;;;;;5027214;28;20204;-86
2022/07/05 09:48:25;;;;;;;2.50;2.15;;;29.90;14.00;;;;;;5062144;28;20698;-86
2022/07/05 09:50:52;;;;;;;3.22;2.00;;;30.60;12.20;;;;;;5075271;28;20213;-86
2022/07/05 09:53:26;;;;;;;2.78;2.15;;;30.80;12.40;;;;;;5064886;28;20221;-86
2022/07/05 09:56:03;;;;;;;5.82;2.20;;;31.20;11.80;;;;;;5076217;28;20585;-86
2022/07/05 09:58:49;;;;;;;6.57;2.60;;;31.50;12.10;;;;;;5068253;28;20193;-86
2022/07/05 10:01:26;;;;;;;4.13;2.17;;;30.70;11.10;;;;;;5072624;28;20204;-86
2022/07/05 10:03:53;;;;;;;3.83;2.20;;;31.50;12.10;;;;;;5072401;28;20204;-86
2022/07/05 10:06:20;;;;;;;2.60;2.40;;;32.60;8.30;;;;;;5075034;28;20197;-85
2022/07/05 10:08:49;;;;;;;3.38;2.38;;;33.60;7.90;;;;;;5077841;28;20201;-86
2022/07/05 10:11:17;;;;;;;3.83;2.63;;;33.90;8.10;;;;;;5081826;28;20204;-85
2022/07/05 10:13:50;;;;;;;3.40;2.35;;;32.70;8.40;;;;;;5084614;28;20193;-85
2022/07/05 10:16:17;;;;;;;4.78;2.45;;;33.40;8.70;;;;;;5079407;28;20205;-86
2022/07/05 10:18:45;;;;;;;4.68;3.08;;;33.80;7.30;;;;;;5078184;28;20250;-85
2022/07/05 10:21:14;;;;;;;4.53;2.90;;;33.90;8.40;;;;;;5081088;28;20204;-86
2022/07/05 10:23:45;;;;;;;3.95;3.20;;;35.10;6.20;;;;;;5077976;28;20201;-86
2022/07/05 10:26:50;;;;;;;4.03;2.90;;;34.10;7.50;;;;;;5081201;28;20204;-85
2022/07/05 10:29:19;;;;;;;2.95;2.70;;;34.40;6.80;;;;;;5075936;28;20189;-85
2022/07/05 10:31:49;;;;;;;4.20;2.53;;;34.90;6.00;;;;;;5077677;28;20221;-85
2022/07/05 10:34:49;;;;;;;3.25;2.50;;;34.10;6.20;;;;;;5079031;28;20213;-86
2022/07/05 10:37:16;;;;;;;5.10;2.40;;;32.40;8.40;;;;;;5070667;28;20671;-86
2022/07/05 10:39:55;;;;;;;3.40;2.20;;;30.90;10.70;;;;;;5072848;28;20203;-85
2022/07/05 10:42:26;;;;;;;2.40;2.13;;;30.10;11.40;;;;;;5074957;28;20208;-86
2022/07/05 10:44:53;;;;;;;3.08;2.40;;;30.10;10.40;;;;;;5071554;28;20212;-86
2022/07/05 10:47:48;;;;;;;3.25;1.83;;;30.10;11.70;;;;;;5064623;28;20562;-85
2022/07/05 10:50:15;;;;;;;5.63;2.20;;;29.50;12.80;;;;;;5071322;28;20199;-86
2022/07/05 10:53:02;;;;;;;4.18;2.20;;;28.70;12.80;;;;;;5070077;28;20208;-85
2022/07/05 10:55:48;;;;;;;2.97;1.95;;;28.50;14.00;;;;;;5065920;28;20208;-85
2022/07/05 10:58:41;;;;;;;2.55;2.05;;;28.80;15.00;;;;;;5074150;28;20194;-85
2022/07/05 11:01:40;;;;;;;2.40;1.98;;;29.90;12.00;;;;;;5062761;28;20197;-86
2022/07/05 11:04:33;;;;;;;3.85;2.10;;;30.90;8.40;;;;;;5070022;28;20650;-86
2022/07/05 11:07:01;;;;;;;4.78;2.05;;;31.00;10.60;;;;;;5063849;28;20276;-86
2022/07/05 11:09:29;;;;;;;5.63;2.03;;;30.70;10.40;;;;;;5067950;28;20188;-87
2022/07/05 11:12:35;;;;;;;2.40;1.90;;;30.10;10.80;;;;;;5073077;28;20192;-85
2022/07/05 11:15:14;;;;;;;2.55;1.90;;;28.90;11.60;;;;;;5070466;28;20232;-85
2022/07/05 11:17:41;;;;;;;3.83;1.80;;;28.20;15.80;;;;;;5070107;28;20280;-85
2022/07/05 11:20:27;;;;;;;4.05;1.80;;;28.00;15.70;;;;;;5071722;28;20275;-85
2022/07/05 11:23:26;;;;;;;2.10;1.90;;;28.00;15.70;;;;;;5068894;28;20196;-84
2022/07/05 11:25:55;;;;;;;3.67;2.00;;;28.40;14.40;;;;;;5065021;28;20686;-85
2022/07/05 11:28:25;;;;;;;1.92;1.83;;;28.10;13.00;;;;;;5066550;28;20193;-85
2022/07/05 11:31:02;;;;;;;6.88;1.60;;;27.50;15.40;;;;;;5066502;28;20693;-84
2022/07/05 11:33:40;;;;;;;2.80;1.67;;;27.10;18.20;;;;;;5060436;28;20217;-85
2022/07/05 11:36:22;;;;;;;2.53;1.90;;;27.20;15.70;;;;;;5072584;28;20754;-85
2022/07/05 11:39:16;;;;;;;2.92;1.67;;;27.30;15.30;;;;;;5055654;28;20205;-85
2022/07/05 11:41:49;;;;;;;1.73;1.35;;;27.50;14.40;;;;;;5071457;28;20189;-84
2022/07/05 11:44:34;;;;;;;3.17;1.60;;;27.50;13.60;;;;;;5073282;28;20272;-84
2022/07/05 11:47:09;;;;;;;1.77;1.45;;;27.60;13.70;;;;;;5072353;28;20563;-85
2022/07/05 11:49:37;;;;;;;2.50;1.70;;;27.60;15.40;;;;;;5069162;28;20207;-85
2022/07/05 11:52:07;;;;;;;3.13;1.67;;;27.80;12.60;;;;;;5071940;28;20201;-82
2022/07/05 11:54:35;;;;;;;4.88;1.52;;;27.70;12.10;;;;;;5069426;28;20197;-85
2022/07/05 11:57:02;;;;;;;3.42;1.63;;;27.70;12.40;;;;;;5072060;28;20208;-84
2022/07/05 12:00:07;;;;;;;4.25;1.60;;;27.70;13.20;;;;;;5072424;28;20196;-84
2022/07/05 12:02:56;;;;;;;3.63;1.70;;;27.60;14.10;;;;;;5070060;28;20261;-85
2022/07/05 12:05:23;;;;;;;1.75;1.50;;;27.70;13.10;;;;;;5071394;28;20201;-84
2022/07/05 12:07:51;;;;;;;3.55;1.70;;;27.80;12.40;;;;;;5062827;28;20534;-84
2022/07/05 12:13:24;;;;;;;3.33;1.67;;;28.20;14.60;;;;;;5074674;28;20311;-84
2022/07/05 12:16:25;;;;;;;2.28;1.67;;;28.10;15.70;;;;;;5068522;28;20224;-84
2022/07/05 12:19:00;;;;;;;2.05;1.60;;;27.60;15.40;;;;;;5057108;28;20185;-84
2022/07/05 12:25:09;;;;;;;3.80;1.60;;;27.00;15.90;;;;;;5068918;28;20188;-84
2022/07/05 12:27:50;;;;;;;1.90;1.65;;;27.40;15.30;;;;;;5062773;28;20706;-84
2022/07/05 12:30:19;;;;;;;2.95;1.60;;;27.40;12.50;;;;;;5057844;28;20193;-84
2022/07/05 12:33:02;;;;;;;3.13;1.60;;;27.60;15.30;;;;;;5073149;28;20227;-84
2022/07/05 12:35:41;;;;;;;2.40;1.90;;;27.50;13.70;;;;;;5073185;28;20323;-84
2022/07/05 12:38:10;;;;;;;2.75;1.60;;;27.40;13.30;;;;;;5076426;28;20687;-84
2022/07/05 12:40:38;;;;;;;2.95;1.83;;;27.50;14.60;;;;;;5069830;28;20188;-84
2022/07/05 12:43:07;;;;;;;3.65;1.80;;;27.80;14.70;;;;;;5076376;28;20189;-85
2022/07/05 12:45:38;;;;;;;6.70;1.80;;;28.20;14.90;;;;;;5077303;28;20208;-84
2022/07/05 12:48:08;;;;;;;3.88;1.70;;;28.10;13.40;;;;;;5067106;28;20204;-84
2022/07/05 12:50:57;;;;;;;3.40;2.00;;;28.00;12.80;;;;;;5074760;28;20204;-84
2022/07/05 12:59:13;;;;;;;2.35;1.60;;;27.90;12.80;;;;;;5068026;28;20208;-84
2022/07/05 13:01:49;;;;;;;3.45;1.40;;;27.60;12.40;;;;;;5059927;28;20197;-85
2022/07/05 13:04:25;;;;;;;5.00;1.95;;;27.10;12.80;;;;;;5074643;28;20643;-85
2022/07/05 13:07:29;;;;;;;3.47;1.60;;;26.70;15.00;;;;;;5074948;28;20651;-85
2022/07/05 13:10:25;;;;;;;6.32;1.70;;;26.80;15.00;;;;;;5059016;28;20198;-84
2022/07/05 13:12:52;;;;;;;3.50;1.90;;;26.60;14.90;;;;;;5074583;28;20185;-84
2022/07/05 13:15:42;;;;;;;1.77;1.60;;;26.40;15.40;;;;;;5070665;28;20221;-81
2022/07/05 13:18:34;;;;;;;2.63;2.00;;;26.30;15.10;;;;;;5075337;28;20213;-82
2022/07/05 13:21:24;;;;;;;2.28;1.70;;;26.20;16.50;;;;;;5052812;28;20197;-83
2022/07/05 13:23:58;;;;;;;3.38;1.95;;;26.10;14.70;;;;;;5062049;28;20198;-83
2022/07/05 13:26:26;;;;;;;2.10;1.63;;;26.30;15.00;;;;;;5063096;28;20197;-83
2022/07/05 13:28:55;;;;;;;2.00;1.80;;;26.60;14.90;;;;;;5074791;28;20204;-83
2022/07/05 13:31:22;;;;;;;2.05;1.77;;;26.70;15.00;;;;;;5061608;28;20194;-83
2022/07/05 13:33:55;;;;;;;3.35;1.88;;;26.70;14.00;;;;;;5062244;28;20194;-82
2022/07/05 13:36:25;;;;;;;3.53;1.45;;;26.80;15.10;;;;;;5073322;28;20224;-83
2022/07/05 13:38:52;;;;;;;1.85;1.70;;;26.80;15.10;;;;;;5073113;28;20336;-83
2022/07/05 13:41:33;;;;;;;3.40;1.77;;;26.80;15.00;;;;;;5074121;28;20193;-83
2022/07/05 13:44:01;;;;;;;4.18;1.90;;;26.50;15.00;;;;;;5066834;28;20596;-83
2022/07/05 13:46:54;;;;;;;2.85;1.50;;;26.20;14.70;;;;;;5074869;28;20199;-83
2022/07/05 13:49:31;;;;;;;1.90;1.60;;;26.10;14.70;;;;;;5075198;28;20193;-82
2022/07/05 13:52:07;;;;;;;2.28;1.40;;;25.90;14.60;;;;;;5073951;28;20667;-82
2022/07/05 13:55:01;;;;;;;3.58;3.08;;;25.60;16.00;;;;;;5076965;28;20200;-82
2022/07/05 13:57:45;;;;;;;11.30;9.15;;;25.40;16.10;;;;;;5066284;28;20671;-82
2022/07/05 14:00:25;;;;;;;3.08;2.50;;;25.20;14.30;;;;;;5080966;28;20197;-81